Time;durP1;ratioP1;P1;durP2;ratioP2;P2;SDS_P1;SDS_P2;PMS_P1;PMS_P2;Temp;Humidity;BMP_temperature;BMP_pressure;BME280_temperature;BME280_humidity;BME280_pressure;Samples;Min_cycle;Max_cycle;Signal;HPM_P1;HPM_P2
2022/03/25 00:01:27;;;;;;;19.27;16.02;;;5.50;99.90;;;;;;5014848;28;20037;-75
2022/03/25 00:03:52;;;;;;;19.60;16.17;;;5.30;99.90;;;;;;5029242;28;20045;-75
2022/03/25 00:06:18;;;;;;;39.05;25.95;;;5.20;99.90;;;;;;5015162;28;20041;-75
2022/03/25 00:08:44;;;;;;;51.30;32.38;;;4.90;99.90;;;;;;5030153;28;20044;-75
2022/03/25 00:11:10;;;;;;;51.47;34.03;;;4.90;99.90;;;;;;5015230;28;20047;-75
2022/03/25 00:13:35;;;;;;;46.63;30.77;;;4.80;99.90;;;;;;5013134;28;20050;-75
2022/03/25 00:16:04;;;;;;;48.65;31.40;;;4.80;99.90;;;;;;5030379;28;20041;-75
2022/03/25 00:18:30;;;;;;;46.17;31.42;;;4.70;99.90;;;;;;5047909;28;20041;-75
2022/03/25 00:20:55;;;;;;;45.30;30.23;;;4.70;99.90;;;;;;5014022;28;20467;-75
2022/03/25 00:23:21;;;;;;;43.75;29.40;;;4.70;99.90;;;;;;5014789;28;20045;-75
2022/03/25 00:25:47;;;;;;;41.00;28.20;;;4.60;99.90;;;;;;5016721;28;20034;-75
2022/03/25 00:28:12;;;;;;;30.40;23.35;;;4.60;99.90;;;;;;5014717;28;20053;-75
2022/03/25 00:30:38;;;;;;;29.95;21.90;;;4.80;99.90;;;;;;5030196;28;20387;-75
2022/03/25 00:33:04;;;;;;;26.27;21.08;;;4.90;99.90;;;;;;5011846;28;20096;-75
2022/03/25 00:35:31;;;;;;;23.55;19.67;;;4.80;99.90;;;;;;5015932;28;20038;-75
2022/03/25 00:37:58;;;;;;;22.73;19.17;;;4.80;99.90;;;;;;5018474;28;20125;-75
2022/03/25 00:40:24;;;;;;;22.70;18.52;;;4.70;99.90;;;;;;5033687;28;20046;-76
2022/03/25 00:42:50;;;;;;;21.30;17.75;;;4.60;99.90;;;;;;5016249;28;20041;-75
2022/03/25 00:45:16;;;;;;;21.25;16.95;;;4.60;99.90;;;;;;5031329;28;20421;-75
2022/03/25 00:47:42;;;;;;;25.08;19.35;;;4.50;99.90;;;;;;5033809;28;20041;-75
2022/03/25 00:50:08;;;;;;;23.05;17.95;;;4.40;99.90;;;;;;5034816;28;20401;-76
2022/03/25 00:52:34;;;;;;;22.15;18.55;;;4.50;99.90;;;;;;5050072;28;20073;-75
2022/03/25 00:55:00;;;;;;;28.65;20.58;;;4.60;99.90;;;;;;5017955;28;20084;-75
2022/03/25 00:57:25;;;;;;;23.05;18.83;;;4.50;99.90;;;;;;5033270;28;20189;-75
2022/03/25 00:59:51;;;;;;;25.05;18.77;;;4.40;99.90;;;;;;5016221;28;20131;-75
2022/03/25 01:02:17;;;;;;;21.27;18.13;;;4.30;99.90;;;;;;5017281;28;20124;-75
2022/03/25 01:04:43;;;;;;;23.27;17.52;;;4.30;99.90;;;;;;5015318;28;20525;-76
2022/03/25 01:07:09;;;;;;;23.65;18.88;;;4.20;99.90;;;;;;5017777;28;20045;-75
2022/03/25 01:09:36;;;;;;;21.83;17.40;;;4.20;99.90;;;;;;5014741;28;20041;-76
2022/03/25 01:12:02;;;;;;;25.23;18.55;;;4.00;99.90;;;;;;5032677;28;20049;-75
2022/03/25 01:14:27;;;;;;;20.48;17.95;;;3.90;99.90;;;;;;5032436;28;20044;-75
2022/03/25 01:16:53;;;;;;;21.92;18.05;;;3.80;99.90;;;;;;5034254;28;20038;-75
2022/03/25 01:19:20;;;;;;;24.73;19.35;;;3.70;99.90;;;;;;5032830;28;20168;-75
2022/03/25 01:21:46;;;;;;;26.35;20.50;;;3.70;99.90;;;;;;5033064;28;20037;-76
2022/03/25 01:24:12;;;;;;;26.40;20.90;;;3.80;99.90;;;;;;5050767;28;20497;-75
2022/03/25 01:26:39;;;;;;;29.77;23.67;;;3.80;99.90;;;;;;5049418;28;20130;-76
2022/03/25 01:29:05;;;;;;;31.20;23.38;;;3.90;99.90;;;;;;5032601;28;20116;-75
2022/03/25 01:31:32;;;;;;;29.58;23.55;;;3.80;99.90;;;;;;5033076;28;20152;-75
2022/03/25 01:33:58;;;;;;;29.65;23.15;;;3.80;99.90;;;;;;5033699;28;20037;-75
2022/03/25 01:36:24;;;;;;;27.58;22.17;;;3.80;99.90;;;;;;5013313;28;20121;-75
2022/03/25 01:38:49;;;;;;;69.10;25.02;;;3.70;99.90;;;;;;5013809;28;20152;-75
2022/03/25 01:41:16;;;;;;;29.05;21.92;;;3.60;99.90;;;;;;5020323;28;20068;-75
2022/03/25 01:43:59;;;;;;;29.45;22.80;;;3.40;99.90;;;;;;5049700;28;20037;-75
2022/03/25 01:46:26;;;;;;;24.77;20.25;;;3.40;99.90;;;;;;5048136;28;20181;-75
2022/03/25 01:48:52;;;;;;;40.50;24.35;;;3.50;99.90;;;;;;5033670;28;20427;-75
2022/03/25 01:51:28;;;;;;;34.10;24.98;;;3.50;99.90;;;;;;5032604;28;20112;-75
2022/03/25 01:53:59;;;;;;;36.30;24.83;;;3.40;99.90;;;;;;5029367;28;20505;-75
2022/03/25 01:56:24;;;;;;;41.30;23.65;;;3.40;99.90;;;;;;5020745;28;20037;-75
2022/03/25 01:58:50;;;;;;;35.65;23.10;;;3.20;99.90;;;;;;5015891;28;20040;-75
2022/03/25 02:01:16;;;;;;;27.83;21.73;;;3.20;99.90;;;;;;5032348;28;20552;-75
2022/03/25 02:03:44;;;;;;;33.78;22.63;;;3.20;99.90;;;;;;5033184;28;20049;-74
2022/03/25 02:06:10;;;;;;;33.55;23.98;;;3.20;99.90;;;;;;5048697;28;20038;-74
2022/03/25 02:08:35;;;;;;;35.88;24.58;;;3.30;99.90;;;;;;5016519;28;20073;-75
2022/03/25 02:11:01;;;;;;;32.63;23.05;;;3.30;99.90;;;;;;5011788;28;20080;-74
2022/03/25 02:13:26;;;;;;;33.85;24.13;;;3.30;99.90;;;;;;5013475;28;20045;-75
2022/03/25 02:15:52;;;;;;;33.58;24.85;;;3.20;99.90;;;;;;5026238;28;20048;-75
2022/03/25 02:18:18;;;;;;;35.25;25.25;;;3.20;99.90;;;;;;5032767;28;20045;-74
2022/03/25 02:20:45;;;;;;;49.08;23.23;;;3.10;99.90;;;;;;5014949;28;20041;-75
2022/03/25 02:23:12;;;;;;;32.75;23.67;;;3.00;99.90;;;;;;5016340;28;20033;-75
2022/03/25 02:25:39;;;;;;;32.97;23.58;;;3.00;99.90;;;;;;5031917;28;20511;-75
2022/03/25 02:28:05;;;;;;;32.00;24.48;;;3.10;99.90;;;;;;5029833;28;20053;-75
2022/03/25 02:30:32;;;;;;;33.33;24.42;;;3.10;99.90;;;;;;5031686;28;20042;-75
2022/03/25 02:33:01;;;;;;;49.10;24.80;;;3.10;99.90;;;;;;5032261;28;20037;-75
2022/03/25 02:35:44;;;;;;;39.22;24.48;;;3.10;99.90;;;;;;5030655;28;20072;-75
2022/03/25 02:38:11;;;;;;;;;;;3.00;99.90;;;;;;5015672;28;20042;-74
2022/03/25 02:40:36;;;;;;;37.97;22.45;;;2.90;99.90;;;;;;5031534;28;19917;-74
2022/03/25 02:43:02;;;;;;;31.75;23.67;;;2.80;99.90;;;;;;5015919;28;20048;-74
2022/03/25 02:45:28;;;;;;;34.03;23.58;;;2.70;99.90;;;;;;5015908;28;20053;-74
2022/03/25 02:47:53;;;;;;;31.77;23.30;;;2.80;99.90;;;;;;5031708;28;20084;-74
2022/03/25 02:50:19;;;;;;;30.48;22.20;;;2.90;99.90;;;;;;5026010;28;20103;-74
2022/03/25 02:52:45;;;;;;;28.83;22.75;;;2.80;99.90;;;;;;5015111;28;20044;-74
2022/03/25 02:55:12;;;;;;;29.55;23.55;;;2.70;99.90;;;;;;5028565;28;20068;-74
2022/03/25 02:57:38;;;;;;;29.73;23.77;;;2.70;99.90;;;;;;5027463;28;20033;-74
2022/03/25 03:00:08;;;;;;;45.72;23.02;;;2.80;99.90;;;;;;5030140;28;20084;-74
2022/03/25 03:02:37;;;;;;;47.70;23.25;;;2.70;99.90;;;;;;5046376;28;20434;-74
2022/03/25 03:05:04;;;;;;;29.70;22.65;;;2.70;99.90;;;;;;5015978;28;20048;-74
2022/03/25 03:07:30;;;;;;;28.65;21.55;;;2.60;99.90;;;;;;5031690;28;20402;-74
2022/03/25 03:09:56;;;;;;;42.03;22.63;;;2.60;99.90;;;;;;5031994;28;20054;-74
2022/03/25 03:12:22;;;;;;;25.98;20.02;;;2.50;99.90;;;;;;5011258;28;20052;-74
2022/03/25 03:14:48;;;;;;;30.40;21.90;;;2.40;99.90;;;;;;5030739;28;20540;-74
2022/03/25 03:17:13;;;;;;;34.20;21.58;;;2.40;99.90;;;;;;5014020;28;20037;-74
2022/03/25 03:19:39;;;;;;;29.17;21.38;;;2.30;99.90;;;;;;5027733;28;20498;-74
2022/03/25 03:22:05;;;;;;;33.15;21.48;;;2.50;99.90;;;;;;5030565;28;20087;-74
2022/03/25 03:24:31;;;;;;;28.70;22.23;;;2.40;99.90;;;;;;5030055;28;20110;-74
2022/03/25 03:26:58;;;;;;;26.17;20.42;;;2.40;99.90;;;;;;5030480;28;20085;-74
2022/03/25 03:29:24;;;;;;;36.97;20.65;;;2.40;99.90;;;;;;5031603;28;20569;-74
2022/03/25 03:31:50;;;;;;;27.98;20.98;;;2.30;99.90;;;;;;5011115;28;20124;-74
2022/03/25 03:34:16;;;;;;;29.20;21.70;;;2.30;99.90;;;;;;5012089;28;20124;-74
2022/03/25 03:36:42;;;;;;;28.42;21.30;;;2.40;99.90;;;;;;5011594;28;20045;-74
2022/03/25 03:39:07;;;;;;;43.85;22.05;;;2.30;99.90;;;;;;5028363;28;20092;-74
2022/03/25 03:41:33;;;;;;;27.27;20.80;;;2.30;99.90;;;;;;5030611;28;20045;-74
2022/03/25 03:43:58;;;;;;;28.85;21.52;;;2.20;99.90;;;;;;5015321;28;20045;-74
2022/03/25 03:46:24;;;;;;;32.17;22.63;;;2.20;99.90;;;;;;5031520;28;20053;-74
2022/03/25 03:48:50;;;;;;;33.20;21.98;;;2.30;99.90;;;;;;5031613;28;20132;-74
2022/03/25 03:51:15;;;;;;;35.72;21.17;;;2.30;99.90;;;;;;5032049;28;20044;-74
2022/03/25 03:53:41;;;;;;;28.02;20.75;;;2.10;99.90;;;;;;5015075;28;20517;-74
2022/03/25 03:56:07;;;;;;;26.77;20.77;;;2.10;99.90;;;;;;5029508;28;20120;-74
2022/03/25 03:58:32;;;;;;;30.45;21.92;;;2.20;99.90;;;;;;5031543;28;20053;-74
2022/03/25 04:00:58;;;;;;;43.30;20.73;;;2.20;99.90;;;;;;5031495;28;20041;-74
2022/03/25 04:03:23;;;;;;;28.33;20.83;;;2.10;99.90;;;;;;5030770;28;20052;-74
2022/03/25 04:05:49;;;;;;;27.40;20.02;;;2.10;99.90;;;;;;5031551;28;20042;-74
2022/03/25 04:08:15;;;;;;;27.90;20.73;;;2.20;99.90;;;;;;5031600;28;20520;-74
2022/03/25 04:10:41;;;;;;;28.83;21.23;;;2.10;99.90;;;;;;5034781;28;20124;-74
2022/03/25 04:13:07;;;;;;;25.95;20.13;;;2.10;99.90;;;;;;5035243;28;20076;-74
2022/03/25 04:15:34;;;;;;;26.05;21.08;;;2.10;99.90;;;;;;5035108;28;20076;-74
2022/03/25 04:18:00;;;;;;;27.20;20.50;;;2.10;99.90;;;;;;5035127;28;20033;-74
2022/03/25 04:20:26;;;;;;;35.97;19.95;;;2.10;99.90;;;;;;5051832;28;20128;-74
2022/03/25 04:22:51;;;;;;;25.98;20.38;;;2.00;99.90;;;;;;5035057;28;20121;-74
2022/03/25 04:25:18;;;;;;;26.05;20.05;;;2.00;99.90;;;;;;5017677;28;20045;-74
2022/03/25 04:27:54;;;;;;;28.05;21.33;;;1.90;99.90;;;;;;5035233;28;20108;-74
2022/03/25 04:30:25;;;;;;;29.17;21.40;;;2.00;99.90;;;;;;5034849;28;20041;-75
2022/03/25 04:32:51;;;;;;;28.55;21.15;;;1.90;99.90;;;;;;5034974;28;20041;-74
2022/03/25 04:35:17;;;;;;;30.77;21.55;;;2.00;99.90;;;;;;5034862;28;20414;-74
2022/03/25 04:37:43;;;;;;;28.20;20.83;;;2.00;99.90;;;;;;5034822;28;20073;-74
2022/03/25 04:40:17;;;;;;;28.48;21.00;;;2.00;99.90;;;;;;5034679;28;20091;-74
2022/03/25 04:42:44;;;;;;;29.75;21.35;;;2.00;99.90;;;;;;5033185;28;20029;-74
2022/03/25 04:45:10;;;;;;;33.47;23.27;;;1.90;99.90;;;;;;5033453;28;20053;-74
2022/03/25 04:47:35;;;;;;;32.78;23.88;;;2.00;99.90;;;;;;5034345;28;20132;-74
2022/03/25 04:50:01;;;;;;;33.35;23.70;;;2.00;99.90;;;;;;5017986;28;20600;-74
2022/03/25 04:52:27;;;;;;;31.90;23.20;;;2.00;99.90;;;;;;5034441;28;20037;-74
2022/03/25 04:54:53;;;;;;;40.05;23.98;;;1.90;99.90;;;;;;5032635;28;20115;-74
2022/03/25 04:57:18;;;;;;;31.35;22.67;;;1.90;99.90;;;;;;5032877;28;20037;-74
2022/03/25 04:59:44;;;;;;;32.78;23.52;;;1.80;99.90;;;;;;5013623;28;20497;-74
2022/03/25 05:02:10;;;;;;;32.33;22.73;;;1.90;99.90;;;;;;5029892;28;20049;-74
2022/03/25 05:04:35;;;;;;;33.45;23.60;;;1.90;99.90;;;;;;5034246;28;20512;-74
2022/03/25 05:07:02;;;;;;;30.48;22.50;;;1.90;99.90;;;;;;5017850;28;20100;-74
2022/03/25 05:09:27;;;;;;;41.47;22.25;;;1.90;99.90;;;;;;5034193;28;20502;-74
2022/03/25 05:11:53;;;;;;;29.13;21.20;;;1.80;99.90;;;;;;5017871;28;20087;-74
2022/03/25 05:14:19;;;;;;;33.85;22.63;;;1.70;99.90;;;;;;5034049;28;20421;-74
2022/03/25 05:16:44;;;;;;;26.83;20.60;;;1.60;99.90;;;;;;5034243;28;20405;-74
2022/03/25 05:19:10;;;;;;;26.83;20.23;;;1.60;99.90;;;;;;5035394;28;20083;-74
2022/03/25 05:21:37;;;;;;;28.60;21.08;;;1.60;99.90;;;;;;5033908;28;20037;-74
2022/03/25 05:24:04;;;;;;;28.50;21.83;;;1.60;99.90;;;;;;5033759;28;20053;-74
2022/03/25 05:26:29;;;;;;;29.83;22.45;;;1.50;99.90;;;;;;5033910;28;20453;-74
2022/03/25 05:28:55;;;;;;;29.52;22.00;;;1.60;99.90;;;;;;5034083;28;20076;-74
2022/03/25 05:31:20;;;;;;;30.58;23.58;;;1.60;99.90;;;;;;5033731;28;20091;-74
2022/03/25 05:33:46;;;;;;;32.55;23.55;;;1.70;99.90;;;;;;5033743;28;20494;-74
2022/03/25 05:36:11;;;;;;;31.30;23.25;;;1.60;99.90;;;;;;5033742;28;20494;-74
2022/03/25 05:38:37;;;;;;;30.13;22.48;;;1.60;99.90;;;;;;5033632;28;20699;-74
2022/03/25 05:41:02;;;;;;;31.60;21.85;;;1.50;99.90;;;;;;5017098;28;20043;-74
2022/03/25 05:43:28;;;;;;;30.90;22.85;;;1.60;99.90;;;;;;5033896;28;20045;-74
2022/03/25 05:45:54;;;;;;;28.77;21.92;;;1.60;99.90;;;;;;5033398;28;20084;-74
2022/03/25 05:48:19;;;;;;;30.55;22.80;;;1.60;99.90;;;;;;5033591;28;20433;-74
2022/03/25 05:50:45;;;;;;;28.60;21.38;;;1.70;99.90;;;;;;5033661;28;20565;-74
2022/03/25 05:53:10;;;;;;;27.35;20.38;;;1.60;99.90;;;;;;5033589;28;20084;-74
2022/03/25 05:55:36;;;;;;;28.67;21.20;;;1.60;99.90;;;;;;5032095;28;20044;-74
2022/03/25 05:58:02;;;;;;;27.42;20.80;;;1.60;99.90;;;;;;5033294;28;20041;-74
2022/03/25 06:00:28;;;;;;;29.35;21.75;;;1.60;99.90;;;;;;5033186;28;20069;-75
2022/03/25 06:02:53;;;;;;;30.35;22.52;;;1.60;99.90;;;;;;5013678;28;20477;-75
2022/03/25 06:05:19;;;;;;;27.23;20.58;;;1.60;99.90;;;;;;5032440;28;20098;-75
2022/03/25 06:07:45;;;;;;;28.40;21.98;;;1.50;99.90;;;;;;5031744;28;20072;-75
2022/03/25 06:10:12;;;;;;;30.15;21.10;;;1.30;99.90;;;;;;5033007;28;20486;-75
2022/03/25 06:12:39;;;;;;;28.83;21.65;;;1.40;99.90;;;;;;5049977;28;20402;-76
2022/03/25 06:15:06;;;;;;;27.90;20.67;;;1.30;99.90;;;;;;5049527;28;20387;-75
2022/03/25 06:17:31;;;;;;;30.25;21.83;;;1.40;99.90;;;;;;5033212;28;20387;-75
2022/03/25 06:19:57;;;;;;;29.20;21.98;;;1.40;99.90;;;;;;5032864;28;20080;-75
2022/03/25 06:22:24;;;;;;;29.08;22.30;;;1.40;99.90;;;;;;5032714;28;20041;-75
2022/03/25 06:24:52;;;;;;;26.95;20.23;;;1.40;99.90;;;;;;5014839;28;20041;-75
2022/03/25 06:27:18;;;;;;;28.70;21.40;;;1.30;99.90;;;;;;5031755;28;20109;-75
2022/03/25 06:29:43;;;;;;;28.10;20.23;;;1.30;99.90;;;;;;5032744;28;20046;-75
2022/03/25 06:32:09;;;;;;;26.83;20.27;;;1.40;99.90;;;;;;5032153;28;20045;-75
2022/03/25 06:34:34;;;;;;;27.35;20.90;;;1.40;99.90;;;;;;5032522;28;20395;-75
2022/03/25 06:37:01;;;;;;;27.83;20.95;;;1.50;99.90;;;;;;5032523;28;20103;-75
2022/03/25 06:39:27;;;;;;;27.77;20.25;;;1.50;99.90;;;;;;5032522;28;20059;-75
2022/03/25 06:41:52;;;;;;;26.70;19.73;;;1.50;99.90;;;;;;5032450;28;20450;-75
2022/03/25 06:44:19;;;;;;;27.15;21.33;;;1.70;99.90;;;;;;5032495;28;20454;-75
2022/03/25 06:46:44;;;;;;;27.00;19.70;;;1.70;99.90;;;;;;5031054;28;20060;-75
2022/03/25 06:49:10;;;;;;;26.60;20.00;;;1.80;99.90;;;;;;5031043;28;20494;-75
2022/03/25 06:51:36;;;;;;;27.10;20.35;;;1.80;99.90;;;;;;5032129;28;20049;-75
2022/03/25 06:54:02;;;;;;;28.02;20.48;;;2.00;99.90;;;;;;5031103;28;20041;-75
2022/03/25 06:56:28;;;;;;;28.23;21.80;;;2.10;99.90;;;;;;5031198;28;20041;-75
2022/03/25 06:58:54;;;;;;;27.02;19.17;;;2.10;99.90;;;;;;5032454;28;20394;-76
2022/03/25 07:01:20;;;;;;;28.48;21.27;;;2.10;99.90;;;;;;5032107;28;20033;-75
2022/03/25 07:03:46;;;;;;;28.52;21.23;;;2.10;99.90;;;;;;5032320;28;20046;-75
2022/03/25 07:06:13;;;;;;;29.08;21.35;;;2.20;99.90;;;;;;5006573;28;20060;-75
2022/03/25 07:08:39;;;;;;;27.75;20.85;;;2.30;99.90;;;;;;5044115;28;20087;-76
2022/03/25 07:11:06;;;;;;;28.25;20.48;;;2.40;99.90;;;;;;5031933;28;20498;-76
2022/03/25 07:13:31;;;;;;;31.40;22.05;;;2.40;99.90;;;;;;5029289;28;20089;-75
2022/03/25 07:15:57;;;;;;;31.95;23.25;;;2.50;99.90;;;;;;4995842;28;20478;-75
2022/03/25 07:18:22;;;;;;;34.35;24.58;;;2.50;99.90;;;;;;5027964;28;20041;-76
2022/03/25 07:20:48;;;;;;;35.35;24.60;;;2.60;99.90;;;;;;5032000;28;20038;-75
2022/03/25 07:23:14;;;;;;;35.72;24.45;;;2.70;99.90;;;;;;5031879;28;20041;-74
2022/03/25 07:25:39;;;;;;;33.97;24.52;;;2.80;99.90;;;;;;5031936;28;20044;-74
2022/03/25 07:28:05;;;;;;;38.15;25.85;;;2.90;99.90;;;;;;5015476;28;20084;-74
2022/03/25 07:30:31;;;;;;;43.45;27.65;;;3.00;99.90;;;;;;5015612;28;20402;-75
2022/03/25 07:32:57;;;;;;;43.55;28.92;;;3.20;99.90;;;;;;5015231;28;20131;-75
2022/03/25 07:35:23;;;;;;;54.97;33.58;;;3.30;99.90;;;;;;5014442;28;20045;-75
2022/03/25 07:37:49;;;;;;;49.50;30.92;;;3.50;99.90;;;;;;5031837;28;20044;-75
2022/03/25 07:40:15;;;;;;;61.30;36.38;;;3.60;99.90;;;;;;5030879;28;20421;-75
2022/03/25 07:42:42;;;;;;;70.07;38.63;;;3.90;99.90;;;;;;5031741;28;20119;-74
2022/03/25 07:45:10;;;;;;;67.45;36.75;;;4.10;99.90;;;;;;5034468;28;20048;-74
2022/03/25 07:47:43;;;;;;;71.25;39.17;;;4.20;99.90;;;;;;5052040;28;20068;-74
2022/03/25 07:50:11;;;;;;;67.57;37.67;;;4.50;99.90;;;;;;5036033;28;20128;-74
2022/03/25 07:52:36;;;;;;;76.07;40.78;;;4.60;99.90;;;;;;5035598;28;20127;-75
2022/03/25 07:55:03;;;;;;;67.50;38.95;;;4.90;99.90;;;;;;5035638;28;20084;-74
2022/03/25 07:57:29;;;;;;;65.85;37.67;;;5.00;99.90;;;;;;5035854;28;20041;-74
2022/03/25 07:59:54;;;;;;;74.35;39.08;;;5.10;99.90;;;;;;5019116;28;20041;-74
2022/03/25 08:02:20;;;;;;;71.47;38.92;;;5.40;99.90;;;;;;5035348;28;20037;-75
2022/03/25 08:04:46;;;;;;;69.00;39.45;;;5.60;99.90;;;;;;5018951;28;20038;-75
2022/03/25 08:07:12;;;;;;;75.22;40.90;;;5.80;99.90;;;;;;5033969;28;20401;-75
2022/03/25 08:09:37;;;;;;;67.30;37.35;;;5.90;99.90;;;;;;5035393;28;20084;-75
2022/03/25 08:12:05;;;;;;;65.30;37.33;;;6.20;99.90;;;;;;5035260;28;20072;-75
2022/03/25 08:14:31;;;;;;;62.88;37.00;;;6.30;99.90;;;;;;5035370;28;20406;-75
2022/03/25 08:16:56;;;;;;;64.43;36.83;;;6.50;99.90;;;;;;5036384;28;20037;-75
2022/03/25 08:19:22;;;;;;;61.00;34.33;;;6.70;99.90;;;;;;5036446;28;20419;-76
2022/03/25 08:21:48;;;;;;;54.00;33.20;;;6.90;99.90;;;;;;5035051;28;20037;-76
2022/03/25 08:29:42;;;;;;;45.75;28.73;;;7.60;99.90;;;;;;5034960;28;20482;-76
2022/03/25 08:32:07;;;;;;;44.38;28.98;;;7.70;99.90;;;;;;5035107;28;20116;-76
2022/03/25 08:34:33;;;;;;;46.53;27.38;;;7.90;99.90;;;;;;5034844;28;20038;-76
2022/03/25 08:36:59;;;;;;;41.83;27.20;;;8.00;99.90;;;;;;5033702;28;20037;-76
2022/03/25 08:39:24;;;;;;;40.63;27.17;;;8.10;99.90;;;;;;5033963;28;20038;-76
2022/03/25 08:41:50;;;;;;;42.58;27.70;;;8.20;99.90;;;;;;5034653;28;20037;-76
2022/03/25 08:44:15;;;;;;;42.35;25.48;;;8.30;99.90;;;;;;5034695;28;20045;-76
2022/03/25 08:46:41;;;;;;;40.42;24.67;;;8.50;99.90;;;;;;5018215;28;20057;-76
2022/03/25 08:49:07;;;;;;;40.55;24.60;;;8.70;99.90;;;;;;5034621;28;20048;-76
2022/03/25 08:51:32;;;;;;;37.28;23.65;;;8.80;99.90;;;;;;5034640;28;20037;-76
2022/03/25 08:53:58;;;;;;;36.85;23.35;;;9.00;99.90;;;;;;5034397;28;20053;-75
2022/03/25 08:56:25;;;;;;;36.10;21.60;;;9.20;99.90;;;;;;5033996;28;20057;-77
2022/03/25 08:58:54;;;;;;;35.85;23.00;;;9.40;99.90;;;;;;5031413;28;20363;-76
2022/03/25 09:01:20;;;;;;;31.90;21.48;;;9.70;99.90;;;;;;5033345;28;20064;-75
2022/03/25 09:03:46;;;;;;;34.35;21.88;;;10.00;99.90;;;;;;5017779;28;20033;-78
2022/03/25 09:06:12;;;;;;;38.42;22.85;;;10.30;99.90;;;;;;5011231;28;20426;-76
2022/03/25 09:08:38;;;;;;;36.25;23.95;;;10.50;99.90;;;;;;5039316;28;20065;-76
2022/03/25 09:11:03;;;;;;;34.70;22.25;;;10.60;99.90;;;;;;5017122;28;20480;-76
2022/03/25 09:13:29;;;;;;;35.92;22.60;;;10.70;99.90;;;;;;5013554;28;20092;-76
2022/03/25 09:15:55;;;;;;;36.97;23.23;;;10.80;99.90;;;;;;5013464;28;20450;-76
2022/03/25 09:18:21;;;;;;;38.58;23.50;;;11.00;99.90;;;;;;5016249;28;20029;-76
2022/03/25 09:20:46;;;;;;;39.30;25.95;;;11.20;99.90;;;;;;5032886;28;20474;-76
2022/03/25 09:23:13;;;;;;;34.75;22.45;;;11.20;98.90;;;;;;5016710;28;20044;-76
2022/03/25 09:25:39;;;;;;;36.72;23.60;;;11.30;99.90;;;;;;5032946;28;20045;-76
2022/03/25 09:28:05;;;;;;;36.95;24.65;;;11.40;99.90;;;;;;5033945;28;20120;-76
2022/03/25 09:30:31;;;;;;;37.97;24.17;;;11.60;99.90;;;;;;5032992;28;20541;-76
2022/03/25 09:32:57;;;;;;;39.63;24.70;;;11.70;98.90;;;;;;5030438;28;20125;-76
2022/03/25 09:35:23;;;;;;;38.63;23.33;;;11.80;99.90;;;;;;5014744;28;20046;-76
2022/03/25 09:37:51;;;;;;;37.97;24.42;;;11.90;99.90;;;;;;5017252;28;20429;-76
2022/03/25 09:40:27;;;;;;;37.60;24.02;;;12.10;99.60;;;;;;5032606;28;20041;-76
2022/03/25 09:42:55;;;;;;;34.05;23.02;;;12.20;99.90;;;;;;5033558;28;20029;-76
2022/03/25 09:45:22;;;;;;;34.70;21.42;;;12.40;99.80;;;;;;5031557;28;20037;-76
2022/03/25 09:47:49;;;;;;;32.58;21.48;;;12.50;98.60;;;;;;5015928;28;20104;-76
2022/03/25 09:50:17;;;;;;;32.03;20.98;;;12.50;98.20;;;;;;5031733;28;20048;-76
2022/03/25 09:52:45;;;;;;;33.15;20.92;;;12.60;96.70;;;;;;5016884;28;20048;-76
2022/03/25 09:55:13;;;;;;;33.95;20.48;;;12.70;94.90;;;;;;5032298;28;20045;-76
2022/03/25 09:57:39;;;;;;;28.92;18.70;;;12.80;96.20;;;;;;5033363;28;20040;-76
2022/03/25 10:00:06;;;;;;;29.40;20.20;;;12.90;95.50;;;;;;5016092;28;20034;-76
2022/03/25 10:02:32;;;;;;;30.85;19.75;;;13.10;90.70;;;;;;5016802;28;20069;-76
2022/03/25 10:04:58;;;;;;;31.75;21.27;;;13.20;95.40;;;;;;5016013;28;20076;-76
2022/03/25 10:07:34;;;;;;;30.05;20.48;;;13.30;79.60;;;;;;5032572;28;20041;-76
2022/03/25 10:10:08;;;;;;;33.58;21.80;;;13.40;93.90;;;;;;5032371;28;20456;-76
2022/03/25 10:12:35;;;;;;;28.58;18.83;;;13.40;90.60;;;;;;5033340;28;20128;-76
2022/03/25 10:15:14;;;;;;;26.52;16.95;;;13.40;83.60;;;;;;5031770;28;20033;-76
2022/03/25 10:18:01;;;;;;;29.90;18.10;;;13.50;92.70;;;;;;5015520;28;20041;-76
2022/03/25 10:20:35;;;;;;;33.10;21.65;;;13.60;92.20;;;;;;5029511;28;20037;-76
2022/03/25 10:23:12;;;;;;;32.92;19.30;;;13.70;84.50;;;;;;5030958;28;20136;-76
2022/03/25 10:25:49;;;;;;;27.35;17.52;;;13.70;88.50;;;;;;5030603;28;20048;-76
2022/03/25 10:28:23;;;;;;;27.80;14.98;;;13.80;85.50;;;;;;5032756;28;20044;-76
2022/03/25 10:30:52;;;;;;;24.52;15.77;;;14.00;80.20;;;;;;5024123;28;20038;-76
2022/03/25 10:33:22;;;;;;;24.70;15.70;;;14.20;79.20;;;;;;5014804;28;20048;-76
2022/03/25 10:36:20;;;;;;;26.63;16.08;;;14.30;78.50;;;;;;5016142;28;20091;-76
2022/03/25 10:38:50;;;;;;;27.13;15.90;;;14.30;75.10;;;;;;5037281;28;20057;-76
2022/03/25 10:41:19;;;;;;;27.42;16.52;;;14.40;78.20;;;;;;5029224;28;20494;-76
2022/03/25 10:43:54;;;;;;;25.08;15.38;;;14.40;75.60;;;;;;5031628;28;20088;-76
2022/03/25 10:46:31;;;;;;;26.95;15.68;;;14.60;74.40;;;;;;5014545;28;20136;-76
2022/03/25 10:48:58;;;;;;;24.50;15.13;;;14.60;72.60;;;;;;5031369;28;20386;-76
2022/03/25 10:51:24;;;;;;;24.30;15.90;;;14.50;69.20;;;;;;5031559;28;20044;-77
2022/03/25 10:54:02;;;;;;;28.15;16.40;;;14.50;64.70;;;;;;5032313;28;20029;-77
2022/03/25 10:56:28;;;;;;;24.90;15.25;;;14.60;70.60;;;;;;5029771;28;20075;-77
2022/03/25 10:58:56;;;;;;;22.73;14.43;;;14.60;74.70;;;;;;5037056;28;20041;-77
2022/03/25 11:01:22;;;;;;;24.65;14.75;;;14.80;69.80;;;;;;5029126;28;21120;-76
2022/03/25 11:03:52;;;;;;;28.80;15.15;;;14.90;69.10;;;;;;5028672;28;20033;-76
2022/03/25 11:06:19;;;;;;;26.92;16.13;;;14.80;64.80;;;;;;5032075;28;20037;-76
2022/03/25 11:08:47;;;;;;;27.05;16.17;;;14.80;63.80;;;;;;5032039;28;20443;-76
2022/03/25 11:11:17;;;;;;;27.13;16.13;;;15.00;68.00;;;;;;5015352;28;20045;-76
2022/03/25 11:13:47;;;;;;;24.55;14.80;;;15.10;63.20;;;;;;5031893;28;20033;-76
2022/03/25 11:16:16;;;;;;;25.50;14.75;;;15.10;63.10;;;;;;5028231;28;20042;-76
2022/03/25 11:18:43;;;;;;;26.48;14.95;;;15.10;66.30;;;;;;5027768;28;20446;-76
2022/03/25 11:21:11;;;;;;;21.42;14.25;;;15.20;63.20;;;;;;5015538;28;20105;-76
2022/03/25 11:23:43;;;;;;;26.10;14.55;;;15.10;62.90;;;;;;5018420;28;20442;-76
2022/03/25 11:26:09;;;;;;;;;;;15.20;65.40;;;;;;5022711;28;20091;-76
2022/03/25 11:28:36;;;;;;;22.25;14.50;;;15.20;62.80;;;;;;5017147;28;19960;-76
2022/03/25 11:31:05;;;;;;;23.20;14.63;;;15.20;63.90;;;;;;5046566;28;20067;-76
2022/03/25 11:33:30;;;;;;;24.55;15.20;;;15.20;61.70;;;;;;5014135;28;20033;-76
2022/03/25 11:36:14;;;;;;;23.20;13.38;;;15.10;61.80;;;;;;5025125;28;20092;-76
2022/03/25 11:38:40;;;;;;;22.85;13.98;;;15.20;57.50;;;;;;4999170;28;20038;-76
2022/03/25 11:41:26;;;;;;;22.90;13.63;;;15.20;58.60;;;;;;5025347;28;20046;-76
2022/03/25 11:44:13;;;;;;;23.88;13.10;;;15.20;60.30;;;;;;5031115;28;20052;-76
2022/03/25 11:46:58;;;;;;;21.88;12.65;;;15.30;59.10;;;;;;5013809;28;20041;-76
2022/03/25 11:49:24;;;;;;;26.90;15.82;;;15.40;59.80;;;;;;5015065;28;20049;-76
2022/03/25 11:51:50;;;;;;;25.83;13.20;;;15.30;60.30;;;;;;5003629;28;20042;-76
2022/03/25 11:54:42;;;;;;;24.15;15.00;;;15.40;62.00;;;;;;5030057;28;20112;-76
2022/03/25 11:57:33;;;;;;;30.08;16.13;;;15.40;60.80;;;;;;5015495;28;20045;-76
2022/03/25 12:00:11;;;;;;;26.15;14.48;;;15.50;56.70;;;;;;5030242;28;20042;-76
2022/03/25 12:02:38;;;;;;;25.15;15.60;;;15.50;60.90;;;;;;5031528;28;20060;-76
2022/03/25 12:05:24;;;;;;;25.50;16.63;;;15.50;60.40;;;;;;5030961;28;20125;-76
2022/03/25 12:08:28;;;;;;;27.02;15.85;;;15.50;60.50;;;;;;5017677;28;20054;-76
2022/03/25 12:10:56;;;;;;;25.20;14.65;;;15.50;59.80;;;;;;5026966;28;20054;-76
2022/03/25 12:13:23;;;;;;;27.20;15.75;;;15.60;61.00;;;;;;5031095;28;20124;-76
2022/03/25 12:15:52;;;;;;;26.52;15.82;;;15.60;59.80;;;;;;5030534;28;20406;-74
2022/03/25 12:18:46;;;;;;;26.55;16.73;;;15.60;61.00;;;;;;5031343;28;20041;-74
2022/03/25 12:21:21;;;;;;;30.75;17.63;;;15.70;58.50;;;;;;5013689;28;20433;-74
2022/03/25 12:24:01;;;;;;;26.98;16.00;;;15.60;58.80;;;;;;5029851;28;20037;-74
2022/03/25 12:26:35;;;;;;;30.33;16.88;;;15.60;59.40;;;;;;5014476;28;20040;-74
2022/03/25 12:29:02;;;;;;;30.38;17.75;;;15.70;57.90;;;;;;5012571;28;20090;-74
2022/03/25 12:31:28;;;;;;;27.08;16.13;;;15.80;57.20;;;;;;5026178;28;20045;-74
2022/03/25 12:34:00;;;;;;;31.50;17.10;;;15.90;58.50;;;;;;5019042;28;20069;-74
2022/03/25 12:36:35;;;;;;;28.13;16.20;;;15.80;56.90;;;;;;5029169;28;20042;-73
2022/03/25 12:39:00;;;;;;;29.20;17.20;;;15.90;56.30;;;;;;5018044;28;20120;-74
2022/03/25 12:41:27;;;;;;;25.15;15.55;;;15.90;56.60;;;;;;5033471;28;20130;-73
2022/03/25 12:44:02;;;;;;;27.80;16.55;;;15.90;58.80;;;;;;5034802;28;20080;-74